Station Historical Data
Daily Summary for March 5, 2017 Units:  English    Metric   Both
« Previous Day
Next Day »
Daily Weekly Monthly Yearly Custom
  High: Low: Average:
Temperature: 36.9 °F 6.8 °F 22 °F
Dew Point: 15.1 °F 1.3 °F 7.4 °F
Humidity: 79% 28% 56%
Wind Speed: 9.0mph 0.0mph 2.4mph
Wind Gust: 15.0mph - -
Wind- - East
Pressure: 30.78 in 30.39 in -
Precipitation: 0.00 in    
Historical Graphs
 
 
Tabular Data for March 5, 2017
Time Temperature Dew Point Pressure Wind Wind Speed Wind Gust Humidity Rainfall Rate (Hourly)
00:04 10.2 °F 2.0 °F 30.75 in Calm     69% 0.00 in
00:09 10.3 °F 2.4 °F 30.75 in Calm     70% 0.00 in
00:14 10.3 °F 2.4 °F 30.75 in Calm   2.0 mph 70% 0.00 in
00:19 10.1 °F 2.3 °F 30.75 in Calm   2.0 mph 70% 0.00 in
00:24 9.9 °F 2.1 °F 30.75 in Calm   2.0 mph 70% 0.00 in
00:29 10.1 °F 1.9 °F 30.75 in Calm   2.0 mph 69% 0.00 in
00:34 10.1 °F 1.9 °F 30.75 in Calm   2.0 mph 69% 0.00 in
00:39 9.9 °F 1.8 °F 30.75 in Calm     69% 0.00 in
00:44 9.8 °F 2.3 °F 30.75 in Calm     71% 0.00 in
00:49 9.7 °F 2.2 °F 30.75 in Calm     71% 0.00 in
00:54 9.7 °F 2.2 °F 30.76 in Calm     71% 0.00 in
00:59 9.5 °F 2.3 °F 30.76 in Calm     72% 0.00 in
01:05 9.6 °F 2.4 °F 30.76 in Calm     72% 0.00 in
01:10 9.6 °F 2.7 °F 30.76 in Calm     73% 0.00 in
01:15 9.6 °F 2.7 °F 30.76 in Calm     73% 0.00 in
01:20 9.4 °F 2.5 °F 30.76 in Calm     73% 0.00 in
01:25 9.3 °F 2.4 °F 30.76 in Calm     73% 0.00 in
01:30 9.3 °F 2.4 °F 30.76 in Calm     73% 0.00 in
01:35 9.6 °F 2.7 °F 30.76 in Calm     73% 0.00 in
01:40 9.4 °F 2.5 °F 30.76 in Calm     73% 0.00 in
01:45 9.3 °F 2.7 °F 30.76 in Calm     74% 0.00 in
01:50 9.2 °F 2.6 °F 30.76 in Calm     74% 0.00 in
01:55 9.3 °F 2.7 °F 30.76 in Calm     74% 0.00 in
02:00 9.3 °F 2.7 °F 30.77 in Calm     74% 0.00 in
02:05 9.3 °F 3.0 °F 30.76 in Calm     75% 0.00 in
02:10 9.3 °F 3.0 °F 30.77 in Calm     75% 0.00 in
02:15 9.4 °F 3.1 °F 30.76 in Calm     75% 0.00 in
02:20 9.3 °F 3.0 °F 30.76 in Calm     75% 0.00 in
02:25 9.3 °F 3.3 °F 30.77 in Calm     76% 0.00 in
02:30 9.3 °F 3.3 °F 30.77 in Calm   2.0 mph 76% 0.00 in
02:35 9.2 °F 3.2 °F 30.77 in Calm   2.0 mph 76% 0.00 in
02:40 9.2 °F 3.2 °F 30.77 in Calm     76% 0.00 in
02:45 9.2 °F 3.2 °F 30.77 in Calm   1.0 mph 76% 0.00 in
02:50 9.5 °F 3.2 °F 30.76 in Calm     75% 0.00 in
02:55 9.8 °F 3.2 °F 30.76 in Calm     74% 0.00 in
03:00 9.9 °F 3.3 °F 30.76 in Calm     74% 0.00 in
03:05 9.9 °F 3.3 °F 30.76 in Calm     74% 0.00 in
03:10 9.8 °F 2.9 °F 30.76 in Calm     73% 0.00 in
03:15 9.5 °F 2.9 °F 30.76 in Calm     74% 0.00 in
03:20 9.5 °F 3.2 °F 30.76 in Calm     75% 0.00 in
03:25 9.6 °F 3.3 °F 30.76 in Calm     75% 0.00 in
03:30 9.4 °F 3.1 °F 30.77 in Calm     75% 0.00 in
03:35 9.3 °F 3.3 °F 30.77 in Calm     76% 0.00 in
03:40 9.2 °F 3.2 °F 30.77 in Calm     76% 0.00 in
03:45 9.1 °F 3.4 °F 30.76 in Calm     77% 0.00 in
03:50 9.1 °F 3.4 °F 30.77 in SE 1.0 mph 2.0 mph 77% 0.00 in
03:55 9.0 °F 3.3 °F 30.77 in Calm   2.0 mph 77% 0.00 in
04:00 9.0 °F 3.5 °F 30.77 in SE 2.0 mph 2.0 mph 78% 0.00 in
04:05 8.9 °F 3.4 °F 30.77 in Calm   2.0 mph 78% 0.00 in
04:10 8.8 °F 3.3 °F 30.77 in SE 1.0 mph 2.0 mph 78% 0.00 in
04:15 8.6 °F 3.1 °F 30.77 in Calm   2.0 mph 78% 0.00 in
04:19 8.5 °F 3.0 °F 30.77 in Calm   2.0 mph 78% 0.00 in
04:25 8.3 °F 2.9 °F 30.77 in Calm     78% 0.00 in
04:30 8.2 °F 2.8 °F 30.77 in Calm     78% 0.00 in
04:35 8.1 °F 2.7 °F 30.77 in Calm     78% 0.00 in
04:40 8.0 °F 2.6 °F 30.78 in Calm     78% 0.00 in
04:45 7.9 °F 2.5 °F 30.77 in Calm     78% 0.00 in
04:50 7.9 °F 2.7 °F 30.77 in Calm     79% 0.00 in
04:55 7.8 °F 2.6 °F 30.77 in Calm     79% 0.00 in
05:00 7.9 °F 2.7 °F 30.77 in Calm     79% 0.00 in
05:04 8.0 °F 2.8 °F 30.77 in Calm   2.0 mph 79% 0.00 in
05:09 8.1 °F 2.9 °F 30.77 in East 1.0 mph 3.0 mph 79% 0.00 in
05:15 7.9 °F 2.7 °F 30.76 in SE 1.0 mph 2.0 mph 79% 0.00 in
05:19 7.8 °F 2.6 °F 30.76 in ESE 1.0 mph 3.0 mph 79% 0.00 in
05:25 7.6 °F 2.2 °F 30.76 in ESE 1.0 mph 3.0 mph 78% 0.00 in
05:30 7.6 °F 2.2 °F 30.76 in ESE 1.0 mph 3.0 mph 78% 0.00 in
05:35 7.4 °F 2.0 °F 30.76 in SE 2.0 mph 3.0 mph 78% 0.00 in
05:40 7.2 °F 1.8 °F 30.76 in ESE 1.0 mph 3.0 mph 78% 0.00 in
05:45 7.1 °F 1.7 °F 30.76 in Calm   3.0 mph 78% 0.00 in
05:49 7.0 °F 1.6 °F 30.75 in ESE 1.0 mph 6.0 mph 78% 0.00 in
05:55 7.0 °F 1.6 °F 30.75 in ESE 1.0 mph 6.0 mph 78% 0.00 in
06:00 7.0 °F 1.6 °F 30.75 in ESE 2.0 mph 6.0 mph 78% 0.00 in
06:05 6.9 °F 1.5 °F 30.75 in ESE 2.0 mph 6.0 mph 78% 0.00 in
06:10 7.0 °F 1.6 °F 30.75 in ESE 1.0 mph 5.0 mph 78% 0.00 in
06:15 6.9 °F 1.5 °F 30.75 in East 2.0 mph 7.0 mph 78% 0.00 in
06:19 6.9 °F 1.5 °F 30.75 in East 2.0 mph 7.0 mph 78% 0.00 in
06:24 6.9 °F 1.5 °F 30.75 in ESE 2.0 mph 6.0 mph 78% 0.00 in
06:29 6.8 °F 1.4 °F 30.76 in SE 2.0 mph 4.0 mph 78% 0.00 in
06:34 6.9 °F 1.5 °F 30.76 in Calm   3.0 mph 78% 0.00 in
06:39 6.9 °F 1.5 °F 30.76 in SE 2.0 mph 3.0 mph 78% 0.00 in
06:44 7.0 °F 1.3 °F 30.76 in ESE 1.0 mph 3.0 mph 77% 0.00 in
06:49 7.0 °F 1.3 °F 30.76 in ESE 1.0 mph 3.0 mph 77% 0.00 in
06:54 7.0 °F 1.3 °F 30.76 in ESE 1.0 mph 3.0 mph 77% 0.00 in
07:00 7.1 °F 1.4 °F 30.76 in SSE 3.0 mph 4.0 mph 77% 0.00 in
07:05 7.2 °F 1.5 °F 30.76 in SSE 2.0 mph 4.0 mph 77% 0.00 in
07:10 7.4 °F 1.7 °F 30.76 in SE 1.0 mph 4.0 mph 77% 0.00 in
07:15 7.6 °F 1.9 °F 30.76 in East 2.0 mph 3.0 mph 77% 0.00 in
07:20 7.8 °F 1.8 °F 30.76 in Calm   3.0 mph 76% 0.00 in
07:24 8.0 °F 2.0 °F 30.76 in SE 1.0 mph 4.0 mph 76% 0.00 in
07:30 8.2 °F 2.2 °F 30.76 in ESE 2.0 mph 6.0 mph 76% 0.00 in
07:34 8.4 °F 2.4 °F 30.76 in SE 1.0 mph 7.0 mph 76% 0.00 in
07:39 8.6 °F 2.3 °F 30.76 in SSE 2.0 mph 6.0 mph 75% 0.00 in
07:44 9.0 °F 2.7 °F 30.76 in SE 1.0 mph 5.0 mph 75% 0.00 in
07:49 9.6 °F 3.3 °F 30.76 in ESE 3.0 mph 5.0 mph 75% 0.00 in
07:55 10.0 °F 3.4 °F 30.76 in ESE 2.0 mph 7.0 mph 74% 0.00 in
07:59 10.5 °F 3.6 °F 30.75 in ESE 3.0 mph 6.0 mph 73% 0.00 in
08:04 11.1 °F 4.1 °F 30.76 in East 5.0 mph 7.0 mph 73% 0.00 in
08:10 11.8 °F 4.2 °F 30.75 in East 1.0 mph 7.0 mph 71% 0.00 in
08:15 12.7 °F 5.1 °F 30.76 in ENE 2.0 mph 7.0 mph 71% 0.00 in
08:20 13.5 °F 5.2 °F 30.75 in ESE 3.0 mph 6.0 mph 69% 0.00 in
08:24 14.0 °F 5.4 °F 30.75 in East 3.0 mph 7.0 mph 68% 0.00 in
08:29 14.9 °F 6.2 °F 30.75 in East 2.0 mph 7.0 mph 68% 0.00 in
08:35 15.3 °F 6.0 °F 30.75 in East 3.0 mph 10.0 mph 66% 0.00 in
08:40 15.9 °F 6.5 °F 30.74 in East 3.0 mph 10.0 mph 66% 0.00 in
08:44 16.2 °F 6.5 °F 30.74 in East 2.0 mph 10.0 mph 65% 0.00 in
08:49 16.8 °F 6.7 °F 30.74 in ESE 4.0 mph 9.0 mph 64% 0.00 in
08:54 17.1 °F 6.7 °F 30.74 in East 4.0 mph 9.0 mph 63% 0.00 in
08:59 17.4 °F 6.9 °F 30.74 in ESE 5.0 mph 10.0 mph 63% 0.00 in
09:05 17.6 °F 6.8 °F 30.74 in ENE 5.0 mph 13.0 mph 62% 0.00 in
09:09 18.1 °F 7.6 °F 30.73 in ESE 7.0 mph 11.0 mph 63% 0.00 in
09:15 18.9 °F 8.0 °F 30.73 in ESE 1.0 mph 9.0 mph 62% 0.00 in
09:20 19.3 °F 7.7 °F 30.73 in SE 2.0 mph 10.0 mph 60% 0.00 in
09:25 19.7 °F 8.0 °F 30.73 in SE 4.0 mph 10.0 mph 60% 0.00 in
09:29 19.7 °F 7.7 °F 30.73 in ESE 5.0 mph 10.0 mph 59% 0.00 in
09:34 20.0 °F 7.2 °F 30.73 in East 5.0 mph 10.0 mph 57% 0.00 in
09:40 20.3 °F 7.1 °F 30.73 in East 5.0 mph 11.0 mph 56% 0.00 in
09:45 20.9 °F 7.6 °F 30.73 in East 5.0 mph 11.0 mph 56% 0.00 in
09:50 21.0 °F 6.5 °F 30.72 in East 5.0 mph 10.0 mph 53% 0.00 in
09:55 21.5 °F 7.4 °F 30.73 in East 5.0 mph 11.0 mph 54% 0.00 in
09:59 21.7 °F 7.2 °F 30.72 in East 2.0 mph 11.0 mph 53% 0.00 in
10:04 21.9 °F 6.5 °F 30.72 in ENE 7.0 mph 11.0 mph 51% 0.00 in
10:09 22.3 °F 7.7 °F 30.73 in East 8.0 mph 8.0 mph 53% 0.00 in
10:14 22.9 °F 7.0 °F 30.72 in East 5.0 mph 8.0 mph 50% 0.00 in
10:19 23.1 °F 7.6 °F 30.72 in ESE 4.0 mph 11.0 mph 51% 0.00 in
10:25 23.7 °F 7.3 °F 30.71 in NNE 2.0 mph 10.0 mph 49% 0.00 in
10:30 24.0 °F 7.6 °F 30.71 in SE 5.0 mph 9.0 mph 49% 0.00 in
10:34 24.2 °F 6.8 °F 30.71 in ESE 5.0 mph 10.0 mph 47% 0.00 in
10:39 24.5 °F 7.6 °F 30.71 in ESE 5.0 mph 11.0 mph 48% 0.00 in
10:44 24.3 °F 6.5 °F 30.71 in East 5.0 mph 11.0 mph 46% 0.00 in
10:49 24.5 °F 6.2 °F 30.71 in East 6.0 mph 13.0 mph 45% 0.00 in
10:54 25.0 °F 6.6 °F 30.70 in ENE 5.0 mph 11.0 mph 45% 0.00 in
10:59 24.9 °F 6.0 °F 30.70 in ESE 3.0 mph 10.0 mph 44% 0.00 in
11:04 25.7 °F 6.3 °F 30.69 in East 3.0 mph 11.0 mph 43% 0.00 in
11:09 25.8 °F 5.8 °F 30.69 in East 5.0 mph 14.0 mph 42% 0.00 in
11:14 26.1 °F 7.1 °F 30.69 in NNE 9.0 mph 10.0 mph 44% 0.00 in
11:19 26.5 °F 6.5 °F 30.68 in NE 5.0 mph 14.0 mph 42% 0.00 in
11:24 27.1 °F 7.5 °F 30.67 in ENE 7.0 mph 10.0 mph 43% 0.00 in
11:29 26.8 °F 5.7 °F 30.67 in NE 2.0 mph 12.0 mph 40% 0.00 in
11:34 28.1 °F 9.0 °F 30.67 in SE 2.0 mph 9.0 mph 44% 0.00 in
11:39 28.7 °F 9.0 °F 30.66 in East 4.0 mph 9.0 mph 43% 0.00 in
11:44 28.0 °F 7.8 °F 30.66 in ENE 5.0 mph 13.0 mph 42% 0.00 in
11:49 28.3 °F 7.0 °F 30.66 in East 6.0 mph 13.0 mph 40% 0.00 in
11:54 28.6 °F 7.3 °F 30.66 in East 5.0 mph 10.0 mph 40% 0.00 in
12:00 28.9 °F 6.4 °F 30.66 in East 5.0 mph 11.0 mph 38% 0.00 in
12:05 29.5 °F 9.7 °F 30.66 in ENE 5.0 mph 11.0 mph 43% 0.00 in
12:09 29.3 °F 5.0 °F 30.66 in East 1.0 mph 9.0 mph 35% 0.00 in
12:14 29.4 °F 6.3 °F 30.65 in ENE 4.0 mph 15.0 mph 37% 0.00 in
12:19 29.8 °F 6.1 °F 30.65 in ESE 8.0 mph 9.0 mph 36% 0.00 in
12:24 29.9 °F 6.7 °F 30.65 in SSE 5.0 mph 10.0 mph 37% 0.00 in
12:29 30.1 °F 5.7 °F 30.65 in ENE 7.0 mph 9.0 mph 35% 0.00 in
12:34 30.3 °F 7.1 °F 30.64 in NE 3.0 mph 10.0 mph 37% 0.00 in
12:39 30.1 °F 4.4 °F 30.64 in ESE 3.0 mph 8.0 mph 33% 0.00 in
12:44 30.6 °F 5.5 °F 30.64 in SE 4.0 mph 7.0 mph 34% 0.00 in
12:49 31.3 °F 8.6 °F 30.63 in ESE 4.0 mph 11.0 mph 38% 0.00 in
12:54 31.6 °F 8.9 °F 30.63 in ESE 4.0 mph 11.0 mph 38% 0.00 in
12:59 32.0 °F 7.4 °F 30.63 in SE 3.0 mph 8.0 mph 35% 0.00 in
13:04 31.9 °F 6.7 °F 30.62 in SE 5.0 mph 10.0 mph 34% 0.00 in
13:10 31.6 °F 5.7 °F 30.62 in NE 3.0 mph 7.0 mph 33% 0.00 in
13:15 31.9 °F 7.9 °F 30.62 in SSE 2.0 mph 5.0 mph 36% 0.00 in
13:19 32.4 °F 5.8 °F 30.61 in ESE 3.0 mph 9.0 mph 32% 0.00 in
13:24 33.0 °F 6.3 °F 30.60 in East 2.0 mph 8.0 mph 32% 0.00 in
13:29 33.5 °F 3.8 °F 30.60 in SSE 4.0 mph 9.0 mph 28% 0.00 in
13:34 33.5 °F 6.0 °F 30.60 in SE 4.0 mph 9.0 mph 31% 0.00 in
13:39 33.1 °F 5.7 °F 30.60 in East 3.0 mph 10.0 mph 31% 0.00 in
13:44 32.7 °F 4.6 °F 30.60 in South 2.0 mph 8.0 mph 30% 0.00 in
13:49 33.5 °F 4.6 °F 30.59 in East 4.0 mph 8.0 mph 29% 0.00 in
13:54 33.0 °F 4.1 °F 30.59 in East 4.0 mph 10.0 mph 29% 0.00 in
13:59 33.9 °F 6.4 °F 30.59 in ESE 3.0 mph 10.0 mph 31% 0.00 in
14:04 33.5 °F 5.3 °F 30.58 in East 3.0 mph 9.0 mph 30% 0.00 in
14:09 33.9 °F 7.1 °F 30.58 in East 2.0 mph 6.0 mph 32% 0.00 in
14:14 34.9 °F 8.0 °F 30.58 in East 6.0 mph 6.0 mph 32% 0.00 in
14:20 34.1 °F 5.1 °F 30.58 in ESE 4.0 mph 10.0 mph 29% 0.00 in
14:24 33.5 °F 6.0 °F 30.57 in ENE 5.0 mph 10.0 mph 31% 0.00 in
14:29 33.5 °F 6.0 °F 30.57 in ENE 4.0 mph 8.0 mph 31% 0.00 in
14:34 34.2 °F 7.4 °F 30.57 in ENE 3.0 mph 8.0 mph 32% 0.00 in
14:39 33.8 °F 7.0 °F 30.57 in NE 1.0 mph 7.0 mph 32% 0.00 in
14:44 33.9 °F 7.1 °F 30.57 in East 5.0 mph 8.0 mph 32% 0.00 in
14:49 33.5 °F 5.3 °F 30.57 in ENE 2.0 mph 8.0 mph 30% 0.00 in
14:54 34.4 °F 7.5 °F 30.56 in East 2.0 mph 6.0 mph 32% 0.00 in
14:59 34.8 °F 7.2 °F 30.56 in ESE 4.0 mph 7.0 mph 31% 0.00 in
15:04 35.0 °F 8.1 °F 30.56 in SE 4.0 mph 8.0 mph 32% 0.00 in
15:09 34.7 °F 6.4 °F 30.56 in NE 4.0 mph 6.0 mph 30% 0.00 in
15:14 34.3 °F 7.4 °F 30.55 in East 2.0 mph 7.0 mph 32% 0.00 in
15:19 34.1 °F 6.6 °F 30.55 in NNE 3.0 mph 5.0 mph 31% 0.00 in
15:24 34.5 °F 8.3 °F 30.56 in ENE 2.0 mph 6.0 mph 33% 0.00 in
15:29 34.3 °F 8.1 °F 30.56 in NE 3.0 mph 6.0 mph 33% 0.00 in
15:34 35.0 °F 8.1 °F 30.55 in ENE 3.0 mph 5.0 mph 32% 0.00 in
15:39 35.0 °F 6.6 °F 30.55 in ENE 2.0 mph 5.0 mph 30% 0.00 in
15:44 34.8 °F 8.6 °F 30.55 in NNE 2.0 mph 5.0 mph 33% 0.00 in
15:49 34.9 °F 8.0 °F 30.55 in NNE 3.0 mph 7.0 mph 32% 0.00 in
15:55 34.9 °F 8.0 °F 30.55 in ENE 1.0 mph 5.0 mph 32% 0.00 in
15:59 35.2 °F 8.2 °F 30.54 in NE 2.0 mph 6.0 mph 32% 0.00 in
16:04 35.2 °F 7.5 °F 30.54 in East 2.0 mph 6.0 mph 31% 0.00 in
16:09 35.5 °F 7.8 °F 30.54 in NE 1.0 mph 8.0 mph 31% 0.00 in
16:14 35.5 °F 8.5 °F 30.54 in East 3.0 mph 8.0 mph 32% 0.00 in
16:19 35.5 °F 7.8 °F 30.54 in NE 3.0 mph 6.0 mph 31% 0.00 in
16:24 36.2 °F 7.7 °F 30.54 in SE 3.0 mph 5.0 mph 30% 0.00 in
16:29 36.9 °F 8.3 °F 30.53 in East 2.0 mph 7.0 mph 30% 0.00 in
16:34 36.7 °F 6.6 °F 30.53 in East 3.0 mph 8.0 mph 28% 0.00 in
16:39 36.3 °F 7.0 °F 30.52 in ENE 5.0 mph 7.0 mph 29% 0.00 in
16:44 36.1 °F 7.6 °F 30.52 in ENE 4.0 mph 9.0 mph 30% 0.00 in
16:49 35.9 °F 5.9 °F 30.52 in SE 5.0 mph 8.0 mph 28% 0.00 in
16:54 36.0 °F 7.5 °F 30.51 in ENE 4.0 mph 7.0 mph 30% 0.00 in
16:59 35.9 °F 7.4 °F 30.51 in ENE 3.0 mph 7.0 mph 30% 0.00 in
17:04 35.9 °F 8.2 °F 30.50 in ENE 3.0 mph 8.0 mph 31% 0.00 in
17:09 35.8 °F 8.1 °F 30.50 in ENE 4.0 mph 9.0 mph 31% 0.00 in
17:14 35.6 °F 8.6 °F 30.50 in ENE 4.0 mph 9.0 mph 32% 0.00 in
17:19 35.4 °F 8.4 °F 30.50 in ESE 8.0 mph 9.0 mph 32% 0.00 in
17:24 35.0 °F 8.7 °F 30.50 in ENE 2.0 mph 8.0 mph 33% 0.00 in
17:29 34.8 °F 8.6 °F 30.51 in ENE 3.0 mph 6.0 mph 33% 0.00 in
17:34 34.6 °F 9.1 °F 30.50 in ENE 3.0 mph 6.0 mph 34% 0.00 in
17:39 34.5 °F 10.9 °F 30.51 in ENE 3.0 mph 8.0 mph 37% 0.00 in
17:44 34.3 °F 10.7 °F 30.50 in ENE 7.0 mph 8.0 mph 37% 0.00 in
17:49 34.2 °F 11.2 °F 30.50 in NNE 2.0 mph 8.0 mph 38% 0.00 in
17:54 33.8 °F 14.2 °F 30.50 in NE 4.0 mph 5.0 mph 44% 0.00 in
17:59 33.3 °F 14.2 °F 30.50 in NE 3.0 mph 8.0 mph 45% 0.00 in
18:04 32.6 °F 14.6 °F 30.50 in NE 4.0 mph 8.0 mph 47% 0.00 in
18:09 32.1 °F 14.6 °F 30.50 in NE 4.0 mph 7.0 mph 48% 0.00 in
18:14 31.7 °F 14.7 °F 30.50 in NE 4.0 mph 7.0 mph 49% 0.00 in
18:19 31.3 °F 14.8 °F 30.50 in NE 5.0 mph 9.0 mph 50% 0.00 in
18:24 30.9 °F 14.9 °F 30.50 in NE 7.0 mph 9.0 mph 51% 0.00 in
18:29 30.6 °F 14.6 °F 30.50 in NE 4.0 mph 7.0 mph 51% 0.00 in
18:34 30.4 °F 14.9 °F 30.50 in NE 5.0 mph 8.0 mph 52% 0.00 in
18:39 30.3 °F 14.8 °F 30.50 in NE 4.0 mph 9.0 mph 52% 0.00 in
18:44 30.1 °F 14.6 °F 30.50 in NE 4.0 mph 9.0 mph 52% 0.00 in
18:49 30.0 °F 14.9 °F 30.50 in NE 4.0 mph 9.0 mph 53% 0.00 in
18:54 29.9 °F 14.4 °F 30.50 in ENE 4.0 mph 8.0 mph 52% 0.00 in
18:59 29.8 °F 13.9 °F 30.50 in ENE 5.0 mph 7.0 mph 51% 0.00 in
19:04 29.8 °F 13.9 °F 30.49 in ENE 3.0 mph 8.0 mph 51% 0.00 in
19:09 29.7 °F 13.8 °F 30.49 in ENE 4.0 mph 10.0 mph 51% 0.00 in
19:14 29.7 °F 13.8 °F 30.49 in ENE 3.0 mph 10.0 mph 51% 0.00 in
19:19 29.6 °F 13.7 °F 30.48 in NE 4.0 mph 7.0 mph 51% 0.00 in
19:24 29.5 °F 13.6 °F 30.48 in East 7.0 mph 9.0 mph 51% 0.00 in
19:29 29.4 °F 13.5 °F 30.48 in ENE 3.0 mph 7.0 mph 51% 0.00 in
19:34 29.3 °F 13.8 °F 30.48 in East 1.0 mph 8.0 mph 52% 0.00 in
19:39 29.2 °F 13.7 °F 30.48 in ENE 3.0 mph 9.0 mph 52% 0.00 in
19:44 29.0 °F 14.0 °F 30.47 in ENE 4.0 mph 9.0 mph 53% 0.00 in
19:49 28.9 °F 13.9 °F 30.47 in ENE 3.0 mph 8.0 mph 53% 0.00 in
19:54 28.8 °F 14.2 °F 30.47 in East 3.0 mph 8.0 mph 54% 0.00 in
19:59 28.7 °F 14.1 °F 30.47 in East 3.0 mph 8.0 mph 54% 0.00 in
20:04 28.6 °F 14.0 °F 30.47 in ENE 3.0 mph 7.0 mph 54% 0.00 in
20:09 28.5 °F 13.9 °F 30.46 in East 3.0 mph 9.0 mph 54% 0.00 in
20:14 28.5 °F 13.9 °F 30.46 in East 4.0 mph 9.0 mph 54% 0.00 in
20:19 28.4 °F 13.9 °F 30.45 in East 6.0 mph 9.0 mph 54% 0.00 in
20:24 28.3 °F 14.2 °F 30.45 in East 3.0 mph 8.0 mph 55% 0.00 in
20:29 28.2 °F 14.1 °F 30.45 in East 5.0 mph 8.0 mph 55% 0.00 in
20:34 28.1 °F 14.0 °F 30.45 in ENE 1.0 mph 7.0 mph 55% 0.00 in
20:39 28.0 °F 14.3 °F 30.45 in NNE 3.0 mph 7.0 mph 56% 0.00 in
20:44 27.9 °F 14.2 °F 30.45 in East 3.0 mph 7.0 mph 56% 0.00 in
20:49 27.8 °F 14.1 °F 30.44 in East 3.0 mph 7.0 mph 56% 0.00 in
20:54 27.7 °F 14.0 °F 30.44 in East 3.0 mph 9.0 mph 56% 0.00 in
20:59 27.7 °F 14.4 °F 30.44 in ENE 2.0 mph 7.0 mph 57% 0.00 in
21:04 27.8 °F 14.5 °F 30.43 in East 2.0 mph 7.0 mph 57% 0.00 in
21:09 27.8 °F 14.5 °F 30.43 in ESE 2.0 mph 6.0 mph 57% 0.00 in
21:14 27.8 °F 14.5 °F 30.43 in East 2.0 mph 5.0 mph 57% 0.00 in
21:19 27.8 °F 14.1 °F 30.43 in East 3.0 mph 6.0 mph 56% 0.00 in
21:24 27.9 °F 14.2 °F 30.42 in ENE 3.0 mph 5.0 mph 56% 0.00 in
21:29 27.9 °F 14.2 °F 30.43 in ENE 2.0 mph 5.0 mph 56% 0.00 in
21:34 27.8 °F 14.1 °F 30.43 in East 3.0 mph 4.0 mph 56% 0.00 in
21:39 27.7 °F 14.0 °F 30.42 in East 2.0 mph 7.0 mph 56% 0.00 in
21:44 27.8 °F 14.5 °F 30.42 in NE 2.0 mph 5.0 mph 57% 0.00 in
21:49 27.8 °F 14.1 °F 30.42 in ENE 3.0 mph 6.0 mph 56% 0.00 in
21:54 27.7 °F 14.0 °F 30.42 in ENE 3.0 mph 6.0 mph 56% 0.00 in
21:59 27.7 °F 14.0 °F 30.42 in ENE 2.0 mph 5.0 mph 56% 0.00 in
22:04 27.7 °F 14.0 °F 30.42 in ENE 2.0 mph 5.0 mph 56% 0.00 in
22:09 27.7 °F 14.4 °F 30.42 in NE 2.0 mph 4.0 mph 57% 0.00 in
22:14 27.7 °F 14.4 °F 30.42 in NE 2.0 mph 4.0 mph 57% 0.00 in
22:19 27.7 °F 14.4 °F 30.42 in NE 4.0 mph 4.0 mph 57% 0.00 in
22:24 27.7 °F 14.4 °F 30.41 in NE 3.0 mph 5.0 mph 57% 0.00 in
22:29 27.7 °F 14.4 °F 30.41 in ENE 1.0 mph 5.0 mph 57% 0.00 in
22:34 27.6 °F 14.3 °F 30.41 in NE 2.0 mph 5.0 mph 57% 0.00 in
22:39 27.5 °F 14.6 °F 30.41 in Calm   2.0 mph 58% 0.00 in
22:44 27.5 °F 14.6 °F 30.41 in NE 1.0 mph 3.0 mph 58% 0.00 in
22:49 27.5 °F 15.0 °F 30.41 in Calm   2.0 mph 59% 0.00 in
22:54 27.4 °F 14.5 °F 30.41 in Calm     58% 0.00 in
22:59 27.4 °F 14.5 °F 30.41 in Calm     58% 0.00 in
23:04 27.4 °F 14.5 °F 30.41 in Calm     58% 0.00 in
23:09 27.5 °F 14.6 °F 30.41 in Calm     58% 0.00 in
23:14 27.6 °F 14.7 °F 30.41 in Calm   2.0 mph 58% 0.00 in
23:19 27.7 °F 14.8 °F 30.40 in Calm     58% 0.00 in
23:24 27.7 °F 14.8 °F 30.40 in Calm     58% 0.00 in
23:29 27.7 °F 14.8 °F 30.40 in Calm     58% 0.00 in
23:34 27.5 °F 15.0 °F 30.40 in Calm     59% 0.00 in
23:39 27.2 °F 15.1 °F 30.40 in Calm     60% 0.00 in
23:44 26.9 °F 14.9 °F 30.39 in Calm     60% 0.00 in
23:49 27.0 °F 14.9 °F 30.39 in Calm     60% 0.00 in
23:54 27.0 °F 14.9 °F 30.39 in Calm     60% 0.00 in
23:59 27.0 °F 14.9 °F 30.39 in Calm     60% 0.00 in
Buffalo, New York, USA
Compliments of Weather Underground - 2.5 mb